createdAt,value
2022-08-25T00:02:02.043Z,21.87
2022-08-25T00:04:29.762Z,21.83
2022-08-25T00:07:02.230Z,21.80
2022-08-25T00:09:31.478Z,21.73
2022-08-25T00:11:58.585Z,21.72
2022-08-25T00:14:29.261Z,21.72
2022-08-25T00:16:56.226Z,21.71
2022-08-25T00:19:26.944Z,21.70
2022-08-25T00:21:56.088Z,21.68
2022-08-25T00:24:24.439Z,21.67
2022-08-25T00:26:55.014Z,21.64
2022-08-25T00:29:23.014Z,21.61
2022-08-25T00:31:49.608Z,21.58
2022-08-25T00:34:20.415Z,21.57
2022-08-25T00:36:47.314Z,21.51
2022-08-25T00:39:14.487Z,21.51
2022-08-25T00:41:43.178Z,21.49
2022-08-25T00:44:12.686Z,21.46
2022-08-25T00:46:45.913Z,21.45
2022-08-25T00:49:31.990Z,21.45
2022-08-25T00:51:58.369Z,21.43
2022-08-25T00:54:47.817Z,21.37
2022-08-25T00:57:16.558Z,21.33
2022-08-25T00:59:44.443Z,21.28
2022-08-25T01:02:14.006Z,21.27
2022-08-25T01:04:48.906Z,21.26
2022-08-25T01:07:19.491Z,21.26
2022-08-25T01:09:49.841Z,21.25
2022-08-25T01:12:16.642Z,21.22
2022-08-25T01:14:46.018Z,21.22
2022-08-25T01:17:14.234Z,21.20
2022-08-25T01:19:41.074Z,21.16
2022-08-25T01:22:07.784Z,21.13
2022-08-25T01:24:34.303Z,21.11
2022-08-25T01:27:01.369Z,21.05
2022-08-25T01:29:28.415Z,21.06
2022-08-25T01:31:59.050Z,21.05
2022-08-25T01:34:31.751Z,21.04
2022-08-25T01:37:00.214Z,21.01
2022-08-25T01:39:28.883Z,20.99
2022-08-25T01:42:08.989Z,20.97
2022-08-25T01:44:46.297Z,20.95
2022-08-25T01:47:14.261Z,20.93
2022-08-25T01:49:40.896Z,20.89
2022-08-25T01:52:10.494Z,20.85
2022-08-25T01:54:37.117Z,20.81
2022-08-25T01:57:04.291Z,20.75
2022-08-25T01:59:30.898Z,20.73
2022-08-25T02:02:00.043Z,20.69
2022-08-25T02:04:32.062Z,20.64
2022-08-25T02:07:05.437Z,20.60
2022-08-25T02:09:32.528Z,20.58
2022-08-25T02:11:59.340Z,20.56
2022-08-25T02:14:26.016Z,20.52
2022-08-25T02:16:54.972Z,20.51
2022-08-25T02:19:24.413Z,20.47
2022-08-25T02:21:51.285Z,20.46
2022-08-25T02:24:18.780Z,20.44
2022-08-25T02:26:45.518Z,20.41
2022-08-25T02:29:12.427Z,20.39
2022-08-25T02:31:39.831Z,20.37
2022-08-25T02:34:07.921Z,20.36
2022-08-25T02:36:35.087Z,20.33
2022-08-25T02:39:02.283Z,20.29
2022-08-25T02:41:31.841Z,20.26
2022-08-25T02:44:02.772Z,20.24
2022-08-25T02:46:29.623Z,20.21
2022-08-25T02:48:56.574Z,20.18
2022-08-25T02:51:25.547Z,20.15
2022-08-25T02:53:52.497Z,20.14
2022-08-25T02:56:19.855Z,20.10
2022-08-25T02:58:48.028Z,20.07
2022-08-25T03:01:15.787Z,20.03
2022-08-25T03:03:45.912Z,19.97
2022-08-25T03:06:15.497Z,19.97
2022-08-25T03:08:43.055Z,19.94
2022-08-25T03:11:10.841Z,19.90
2022-08-25T03:13:37.907Z,19.87
2022-08-25T03:16:10.977Z,19.82
2022-08-25T03:18:39.525Z,19.80
2022-08-25T03:21:07.575Z,19.78
2022-08-25T03:23:34.148Z,19.76
2022-08-25T03:26:20.491Z,19.72
2022-08-25T03:28:47.181Z,19.71
2022-08-25T03:31:13.890Z,19.70
2022-08-25T03:33:40.593Z,19.65
2022-08-25T03:36:08.596Z,19.66
2022-08-25T03:38:38.259Z,19.64
2022-08-25T03:41:23.656Z,19.61
2022-08-25T03:43:53.860Z,19.53
2022-08-25T03:46:24.800Z,19.54
2022-08-25T03:48:52.324Z,19.51
2022-08-25T03:51:24.264Z,19.48
2022-08-25T03:53:51.482Z,19.42
2022-08-25T03:56:18.665Z,19.44
2022-08-25T03:58:45.813Z,19.46
2022-08-25T04:01:12.557Z,19.44
2022-08-25T04:03:39.261Z,19.43
2022-08-25T04:06:07.760Z,19.48
2022-08-25T04:08:34.829Z,19.50
2022-08-25T04:11:13.948Z,19.53
2022-08-25T04:13:45.740Z,19.56
2022-08-25T04:16:15.014Z,19.58
2022-08-25T04:18:42.832Z,19.62
2022-08-25T04:21:11.205Z,19.62
2022-08-25T04:23:42.724Z,19.62
2022-08-25T04:26:32.601Z,19.68
2022-08-25T04:29:00.866Z,19.71
2022-08-25T04:31:28.815Z,19.74
2022-08-25T04:33:55.523Z,19.76
2022-08-25T04:36:22.632Z,19.79
2022-08-25T04:38:50.058Z,19.79
2022-08-25T04:41:21.186Z,19.88
2022-08-25T04:43:48.515Z,19.89
2022-08-25T04:46:23.444Z,19.95
2022-08-25T04:48:53.485Z,19.98
2022-08-25T04:51:26.361Z,20.01
2022-08-25T04:53:54.316Z,20.04
2022-08-25T04:56:25.063Z,20.07
2022-08-25T04:58:53.550Z,20.14
2022-08-25T05:01:24.212Z,20.19
2022-08-25T05:03:59.650Z,20.26
2022-08-25T05:06:27.501Z,20.29
2022-08-25T05:08:54.263Z,20.35
2022-08-25T05:11:21.900Z,20.38
2022-08-25T05:13:52.714Z,20.41
2022-08-25T05:16:21.841Z,20.46
2022-08-25T05:18:50.507Z,20.50
2022-08-25T05:21:20.216Z,20.51
2022-08-25T05:23:47.675Z,20.59
2022-08-25T05:26:20.652Z,20.65
2022-08-25T05:28:50.404Z,20.72
2022-08-25T05:31:17.978Z,20.78
2022-08-25T05:33:44.669Z,20.88
2022-08-25T05:36:13.739Z,20.95
2022-08-25T05:38:41.840Z,21.02
2022-08-25T05:41:12.096Z,21.09
2022-08-25T05:43:41.008Z,21.18
2022-08-25T05:46:09.265Z,21.23
2022-08-25T05:48:36.633Z,21.29
2022-08-25T05:51:06.933Z,21.37
2022-08-25T05:53:34.251Z,21.51
2022-08-25T05:56:01.923Z,21.63
2022-08-25T05:58:29.657Z,21.72
2022-08-25T06:00:58.387Z,21.83
2022-08-25T06:03:25.107Z,21.90
2022-08-25T06:05:51.749Z,21.99
2022-08-25T06:08:19.482Z,22.05
2022-08-25T06:10:51.696Z,22.13
2022-08-25T06:13:26.953Z,22.23
2022-08-25T06:15:59.801Z,22.32
2022-08-25T06:18:26.914Z,22.39
2022-08-25T06:20:54.018Z,22.47
2022-08-25T06:23:20.641Z,22.55
2022-08-25T06:25:51.810Z,22.63
2022-08-25T06:28:19.313Z,22.72
2022-08-25T06:30:46.901Z,22.83
2022-08-25T06:33:14.728Z,22.88
2022-08-25T06:35:43.216Z,23.00
2022-08-25T06:38:11.039Z,23.10
2022-08-25T06:40:38.484Z,23.20
2022-08-25T06:43:08.778Z,23.29
2022-08-25T06:45:35.855Z,23.39
2022-08-25T06:48:02.527Z,23.48
2022-08-25T06:50:29.410Z,23.57
2022-08-25T06:52:56.066Z,23.63
2022-08-25T06:55:22.693Z,23.72
2022-08-25T06:57:53.333Z,23.79
2022-08-25T07:00:22.538Z,23.88
2022-08-25T07:02:57.624Z,23.95
2022-08-25T07:05:33.589Z,24.01
2022-08-25T07:08:07.320Z,24.10
2022-08-25T07:10:33.922Z,24.16
2022-08-25T07:13:01.565Z,24.25
2022-08-25T07:15:28.230Z,24.31
2022-08-25T07:17:54.937Z,24.39
2022-08-25T07:22:54.025Z,24.53
2022-08-25T07:25:20.616Z,24.59
2022-08-25T07:27:47.195Z,24.67
2022-08-25T07:30:13.904Z,24.78
2022-08-25T07:32:42.241Z,24.84
2022-08-25T07:35:18.920Z,24.92
2022-08-25T07:37:52.017Z,24.97
2022-08-25T07:40:24.324Z,25.08
2022-08-25T07:42:52.841Z,25.15
2022-08-25T07:45:21.234Z,25.23
2022-08-25T07:47:48.530Z,25.28
2022-08-25T07:50:18.656Z,25.37
2022-08-25T07:52:49.727Z,25.45
2022-08-25T07:55:20.640Z,25.52
2022-08-25T07:57:48.972Z,25.59
2022-08-25T08:00:21.843Z,25.65
2022-08-25T08:02:48.572Z,25.70
2022-08-25T08:05:15.530Z,25.74
2022-08-25T08:07:43.986Z,25.80
2022-08-25T08:13:01.708Z,25.94
2022-08-25T08:15:29.704Z,26.01
2022-08-25T08:17:58.116Z,26.10
2022-08-25T08:20:26.869Z,26.18
2022-08-25T08:22:53.631Z,26.23
2022-08-25T08:25:21.594Z,26.27
2022-08-25T08:27:55.050Z,26.30
2022-08-25T08:30:22.267Z,26.36
2022-08-25T08:33:09.311Z,26.41
2022-08-25T08:35:36.615Z,26.47
2022-08-25T08:38:03.421Z,26.52
2022-08-25T08:40:33.760Z,26.56
2022-08-25T08:43:18.226Z,26.60
2022-08-25T08:45:51.944Z,26.69
2022-08-25T08:48:41.973Z,26.76
2022-08-25T08:51:42.349Z,26.83
2022-08-25T08:54:23.121Z,26.91
2022-08-25T08:56:55.186Z,26.96
2022-08-25T08:59:30.089Z,27.06
2022-08-25T09:02:02.733Z,27.13
2022-08-25T09:04:55.071Z,27.17
2022-08-25T09:07:32.275Z,27.27
2022-08-25T09:09:59.471Z,27.35
2022-08-25T09:12:56.847Z,27.43
2022-08-25T09:16:20.451Z,27.55
2022-08-25T09:19:25.987Z,27.58
2022-08-25T09:22:35.909Z,27.58
2022-08-25T09:25:29.456Z,27.61
2022-08-25T09:28:33.280Z,27.70
2022-08-25T09:31:27.510Z,27.76
2022-08-25T09:34:00.038Z,27.83
2022-08-25T09:36:30.140Z,27.89
2022-08-25T09:38:57.969Z,27.92
2022-08-25T09:41:52.087Z,27.95
2022-08-25T09:44:29.363Z,28.00
2022-08-25T09:47:01.908Z,28.03
2022-08-25T09:49:43.962Z,28.06
2022-08-25T09:52:29.070Z,28.20
2022-08-25T09:54:59.441Z,28.30
2022-08-25T09:57:35.055Z,28.35
2022-08-25T10:00:19.628Z,28.39
2022-08-25T10:03:05.606Z,28.45
2022-08-25T10:05:37.590Z,28.61
2022-08-25T10:08:14.678Z,28.68
2022-08-25T10:10:54.947Z,28.75
2022-08-25T10:13:25.065Z,28.82
2022-08-25T10:16:24.506Z,28.89
2022-08-25T10:19:10.306Z,28.96
2022-08-25T10:21:39.330Z,29.02
2022-08-25T10:24:11.308Z,29.07
2022-08-25T10:26:56.882Z,29.14
2022-08-25T10:29:32.500Z,29.20
2022-08-25T10:32:24.555Z,29.22
2022-08-25T10:34:58.631Z,29.24
2022-08-25T10:37:28.576Z,29.30
2022-08-25T10:40:07.994Z,29.37
2022-08-25T10:43:00.888Z,29.40
2022-08-25T10:45:43.638Z,29.45
2022-08-25T10:48:40.754Z,29.54
2022-08-25T10:51:40.975Z,29.62
2022-08-25T10:54:30.577Z,29.70
2022-08-25T10:57:08.184Z,29.75
2022-08-25T10:59:36.762Z,29.78
2022-08-25T11:02:21.671Z,29.83
2022-08-25T11:05:05.359Z,29.89
2022-08-25T11:07:46.946Z,29.96
2022-08-25T11:10:26.024Z,30.01
2022-08-25T11:12:59.815Z,30.03
2022-08-25T11:15:41.480Z,30.15
2022-08-25T11:18:16.870Z,30.32
2022-08-25T11:20:53.762Z,30.47
2022-08-25T11:30:19.209Z,30.79
2022-08-25T11:32:52.162Z,30.97
2022-08-25T11:35:42.651Z,31.13
2022-08-25T11:38:34.908Z,31.27
2022-08-25T11:41:27.175Z,31.46
2022-08-25T11:44:26.934Z,31.64
2022-08-25T11:47:21.170Z,31.81
2022-08-25T11:50:29.878Z,32.03
2022-08-25T11:53:23.607Z,32.19
2022-08-25T11:55:58.911Z,32.36
2022-08-25T11:58:28.482Z,32.54
2022-08-25T12:01:00.447Z,32.67
2022-08-25T12:03:34.023Z,32.75
2022-08-25T12:06:15.890Z,32.81
2022-08-25T12:08:57.513Z,32.86
2022-08-25T12:11:47.484Z,32.89
2022-08-25T12:14:36.461Z,32.94
2022-08-25T12:17:18.282Z,32.99
2022-08-25T12:19:44.910Z,33.11
2022-08-25T12:22:11.465Z,33.33
2022-08-25T12:24:53.844Z,33.58
2022-08-25T12:27:38.282Z,33.77
2022-08-25T12:30:21.125Z,33.99
2022-08-25T12:33:11.971Z,34.31
2022-08-25T12:35:49.730Z,34.81
2022-08-25T12:38:50.928Z,35.35
2022-08-25T12:41:26.535Z,35.75
2022-08-25T12:44:08.956Z,36.09
2022-08-25T12:46:39.465Z,36.47
2022-08-25T12:49:18.287Z,36.76
2022-08-25T12:51:54.228Z,37.48
2022-08-25T12:54:36.969Z,38.34
2022-08-25T12:57:29.389Z,39.43
2022-08-25T13:00:01.056Z,40.38
2022-08-25T13:03:09.879Z,41.32
2022-08-25T13:05:54.916Z,42.20
2022-08-25T13:08:48.602Z,43.01
2022-08-25T13:11:40.851Z,43.66
2022-08-25T13:14:42.123Z,44.01
2022-08-25T13:17:11.073Z,44.17
2022-08-25T13:19:38.417Z,43.87
2022-08-25T13:22:17.722Z,43.24
2022-08-25T13:24:50.441Z,42.49
2022-08-25T13:27:28.176Z,41.47
2022-08-25T13:30:03.703Z,40.73
2022-08-25T13:32:35.085Z,40.43
2022-08-25T13:35:20.945Z,40.80
2022-08-25T13:37:48.273Z,41.36
2022-08-25T13:40:33.361Z,42.07
2022-08-25T13:43:05.791Z,42.85
2022-08-25T13:45:41.477Z,43.60
2022-08-25T13:48:22.432Z,44.40
2022-08-25T13:50:52.659Z,45.08
2022-08-25T13:53:25.882Z,45.67
2022-08-25T13:55:58.698Z,46.34
2022-08-25T13:58:38.668Z,46.89
2022-08-25T14:01:47.201Z,46.91
2022-08-25T14:04:24.247Z,46.81
2022-08-25T14:07:08.389Z,46.85
2022-08-25T14:09:49.335Z,46.82
2022-08-25T14:15:02.819Z,46.97
2022-08-25T14:17:39.436Z,47.18
2022-08-25T14:20:20.439Z,47.52
2022-08-25T14:22:47.878Z,47.77
2022-08-25T14:25:15.147Z,47.98
2022-08-25T14:28:03.665Z,48.27
2022-08-25T14:30:34.889Z,48.19
2022-08-25T14:33:04.025Z,48.06
2022-08-25T14:35:31.753Z,47.37
2022-08-25T14:37:58.966Z,46.39
2022-08-25T14:40:25.779Z,45.67
2022-08-25T14:42:52.437Z,44.92
2022-08-25T14:45:19.428Z,43.95
2022-08-25T14:47:49.729Z,43.04
2022-08-25T14:50:24.735Z,42.08
2022-08-25T14:52:52.185Z,41.28
2022-08-25T14:55:32.234Z,40.54
2022-08-25T14:57:59.937Z,39.76
2022-08-25T15:00:26.612Z,39.13
2022-08-25T15:02:54.918Z,38.79
2022-08-25T15:05:27.058Z,38.83
2022-08-25T15:08:14.254Z,39.24
2022-08-25T15:10:42.176Z,39.92
2022-08-25T15:13:10.738Z,40.59
2022-08-25T15:15:52.311Z,41.17
2022-08-25T15:18:21.141Z,41.83
2022-08-25T15:20:50.073Z,42.29
2022-08-25T15:23:18.550Z,42.73
2022-08-25T15:25:48.025Z,43.17
2022-08-25T15:28:17.089Z,43.48
2022-08-25T15:30:45.154Z,43.72
2022-08-25T15:33:13.161Z,43.87
2022-08-25T15:35:41.003Z,43.92
2022-08-25T15:38:08.211Z,43.81
2022-08-25T15:40:37.629Z,43.44
2022-08-25T15:43:04.982Z,42.90
2022-08-25T15:45:32.082Z,42.25
2022-08-25T15:47:59.548Z,41.55
2022-08-25T15:50:26.902Z,40.96
2022-08-25T15:52:53.617Z,40.35
2022-08-25T15:55:20.993Z,39.71
2022-08-25T15:57:49.719Z,39.04
2022-08-25T16:00:18.182Z,38.39
2022-08-25T16:02:45.466Z,37.82
2022-08-25T16:05:16.283Z,37.28
2022-08-25T16:07:45.918Z,36.85
2022-08-25T16:10:13.607Z,36.42
2022-08-25T16:12:40.320Z,36.05
2022-08-25T16:15:09.983Z,35.66
2022-08-25T16:17:40.965Z,35.30
2022-08-25T16:20:12.591Z,34.92
2022-08-25T16:22:40.359Z,34.61
2022-08-25T16:25:07.509Z,34.25
2022-08-25T16:27:38.644Z,33.96
2022-08-25T16:30:09.126Z,33.75
2022-08-25T16:32:37.055Z,33.55
2022-08-25T16:35:05.732Z,33.37
2022-08-25T16:37:37.774Z,33.19
2022-08-25T16:40:05.274Z,33.00
2022-08-25T16:42:31.959Z,32.83
2022-08-25T16:44:59.911Z,32.66
2022-08-25T16:47:26.959Z,32.49
2022-08-25T16:49:54.132Z,32.30
2022-08-25T16:52:40.651Z,32.12
2022-08-25T16:55:12.815Z,31.93
2022-08-25T16:57:41.405Z,31.78
2022-08-25T17:00:13.539Z,31.63
2022-08-25T17:02:41.605Z,31.45
2022-08-25T17:05:10.243Z,31.29
2022-08-25T17:07:37.422Z,31.13
2022-08-25T17:10:05.661Z,30.95
2022-08-25T17:12:32.786Z,30.78
2022-08-25T17:14:59.490Z,30.58
2022-08-25T17:17:27.073Z,30.37
2022-08-25T17:19:54.876Z,30.18
2022-08-25T17:22:22.574Z,29.99
2022-08-25T17:24:53.419Z,29.78
2022-08-25T17:27:27.284Z,29.54
2022-08-25T17:29:54.611Z,29.36
2022-08-25T17:32:28.872Z,29.18
2022-08-25T17:34:57.812Z,28.99
2022-08-25T17:37:24.632Z,28.78
2022-08-25T17:39:56.711Z,28.57
2022-08-25T17:42:31.630Z,28.36
2022-08-25T17:44:58.249Z,28.11
2022-08-25T17:47:26.991Z,27.88
2022-08-25T17:49:54.343Z,27.67
2022-08-25T17:52:25.423Z,27.48
2022-08-25T17:54:52.941Z,27.31
2022-08-25T17:57:19.809Z,27.15
2022-08-25T17:59:48.095Z,27.02
2022-08-25T18:02:14.930Z,26.91
2022-08-25T18:04:42.491Z,26.82
2022-08-25T18:07:12.016Z,26.74
2022-08-25T18:09:38.669Z,26.63
2022-08-25T18:12:05.652Z,26.54
2022-08-25T18:14:32.304Z,26.45
2022-08-25T18:17:00.234Z,26.35
2022-08-25T18:19:26.946Z,26.27
2022-08-25T18:21:53.614Z,26.19
2022-08-25T18:24:21.097Z,26.13
2022-08-25T18:26:50.515Z,26.10
2022-08-25T18:29:17.372Z,26.09
2022-08-25T18:31:46.584Z,26.09
2022-08-25T18:34:15.994Z,26.09
2022-08-25T18:36:42.730Z,26.08
2022-08-25T18:39:34.576Z,26.07
2022-08-25T18:42:03.078Z,26.04
2022-08-25T18:44:31.601Z,26.01
2022-08-25T18:46:58.797Z,26.02
2022-08-25T18:49:26.755Z,26.00
2022-08-25T18:51:55.573Z,25.97
2022-08-25T18:54:23.071Z,26.00
2022-08-25T18:56:52.477Z,25.98
2022-08-25T18:59:19.989Z,25.96
2022-08-25T19:01:50.983Z,25.95
2022-08-25T19:04:17.783Z,25.93
2022-08-25T19:06:44.825Z,25.91
2022-08-25T19:09:11.968Z,25.88
2022-08-25T19:11:38.804Z,25.85
2022-08-25T19:14:08.086Z,25.82
2022-08-25T19:16:42.548Z,25.80
2022-08-25T19:19:13.318Z,25.78
2022-08-25T19:21:41.416Z,25.75
2022-08-25T19:24:10.385Z,25.69
2022-08-25T19:26:38.916Z,25.63
2022-08-25T19:29:09.417Z,25.55
2022-08-25T19:31:37.622Z,25.52
2022-08-25T19:34:07.368Z,25.46
2022-08-25T19:36:34.288Z,25.41
2022-08-25T19:39:02.152Z,25.37
2022-08-25T19:41:31.373Z,25.33
2022-08-25T19:43:59.473Z,25.30
2022-08-25T19:46:35.662Z,25.25
2022-08-25T19:49:19.078Z,25.20
2022-08-25T19:51:50.530Z,25.16
2022-08-25T19:54:26.421Z,25.11
2022-08-25T19:56:54.481Z,25.06
2022-08-25T19:59:40.689Z,25.00
2022-08-25T20:02:15.487Z,24.94
2022-08-25T20:04:49.719Z,24.88
2022-08-25T20:07:19.053Z,24.84
2022-08-25T20:09:45.935Z,24.81
2022-08-25T20:12:12.990Z,24.79
2022-08-25T20:14:40.045Z,24.75
2022-08-25T20:17:14.617Z,24.73
2022-08-25T20:19:56.124Z,24.71
2022-08-25T20:22:26.145Z,24.66
2022-08-25T20:24:58.112Z,24.62
2022-08-25T20:27:36.272Z,24.61
2022-08-25T20:30:06.044Z,24.59
2022-08-25T20:32:33.604Z,24.54
2022-08-25T20:35:02.451Z,24.53
2022-08-25T20:37:30.531Z,24.52
2022-08-25T20:39:57.650Z,24.48
2022-08-25T20:42:25.023Z,24.44
2022-08-25T20:44:51.821Z,24.40
2022-08-25T20:47:21.026Z,24.37
2022-08-25T20:49:48.494Z,24.31
2022-08-25T20:52:16.014Z,24.28
2022-08-25T20:54:46.983Z,24.23
2022-08-25T20:57:17.751Z,24.19
2022-08-25T20:59:44.375Z,24.13
2022-08-25T21:02:11.073Z,24.09
2022-08-25T21:04:39.970Z,24.09
2022-08-25T21:07:17.625Z,24.05
2022-08-25T21:09:44.606Z,23.99
2022-08-25T21:12:11.219Z,23.95
2022-08-25T21:14:40.739Z,23.93
2022-08-25T21:17:10.519Z,23.90
2022-08-25T21:19:38.906Z,23.88
2022-08-25T21:22:07.525Z,23.83
2022-08-25T21:24:34.565Z,23.80
2022-08-25T21:27:03.249Z,23.78
2022-08-25T21:29:32.565Z,23.73
2022-08-25T21:32:00.207Z,23.69
2022-08-25T21:34:29.107Z,23.67
2022-08-25T21:36:57.857Z,23.65
2022-08-25T21:39:27.472Z,23.63
2022-08-25T21:41:58.550Z,23.61
2022-08-25T21:44:26.914Z,23.57
2022-08-25T21:46:54.584Z,23.54
2022-08-25T21:49:22.553Z,23.52
2022-08-25T21:51:59.326Z,23.50
2022-08-25T21:54:28.781Z,23.49
2022-08-25T21:56:59.697Z,23.47
2022-08-25T21:59:31.908Z,23.44
2022-08-25T22:02:00.713Z,23.41
2022-08-25T22:04:28.458Z,23.36
2022-08-25T22:06:55.741Z,23.37
2022-08-25T22:09:25.166Z,23.33
2022-08-25T22:11:54.642Z,23.31
2022-08-25T22:14:22.033Z,23.28
2022-08-25T22:16:48.664Z,23.23
2022-08-25T22:19:15.343Z,23.19
2022-08-25T22:21:43.965Z,23.16
2022-08-25T22:24:11.747Z,23.15
2022-08-25T22:26:39.102Z,23.12
2022-08-25T22:29:06.600Z,23.07
2022-08-25T22:31:35.003Z,23.02
2022-08-25T22:34:03.630Z,23.01
2022-08-25T22:36:34.441Z,22.99
2022-08-25T22:39:02.225Z,22.96
2022-08-25T22:41:30.154Z,22.94
2022-08-25T22:43:57.711Z,22.91
2022-08-25T22:46:26.231Z,22.89
2022-08-25T22:48:55.586Z,22.83
2022-08-25T22:51:27.709Z,22.84
2022-08-25T22:53:54.796Z,22.81
2022-08-25T22:56:29.823Z,22.78
2022-08-25T22:59:03.147Z,22.74
2022-08-25T23:01:31.872Z,22.71
2022-08-25T23:04:01.770Z,22.69
2022-08-25T23:06:28.789Z,22.67
2022-08-25T23:08:56.261Z,22.65
2022-08-25T23:11:24.572Z,22.62
2022-08-25T23:13:55.356Z,22.62
2022-08-25T23:16:22.537Z,22.60
2022-08-25T23:18:49.311Z,22.59
2022-08-25T23:21:38.024Z,22.52
2022-08-25T23:24:10.708Z,22.51
2022-08-25T23:26:42.570Z,22.49
2022-08-25T23:29:18.639Z,22.48
2022-08-25T23:31:47.688Z,22.44
2022-08-25T23:34:16.578Z,22.43
2022-08-25T23:36:43.813Z,22.37
2022-08-25T23:39:10.922Z,22.36
2022-08-25T23:41:37.592Z,22.35
2022-08-25T23:44:05.483Z,22.33
2022-08-25T23:46:35.002Z,22.28
2022-08-25T23:49:03.145Z,22.28
2022-08-25T23:51:34.322Z,22.26
2022-08-25T23:54:09.146Z,22.25
2022-08-25T23:56:37.251Z,22.23
2022-08-25T23:59:09.739Z,22.20
